sensor_id;sensor_type;location;lat;lon;timestamp;pressure;altitude;pressure_sealevel;temperature;humidity
58979;BME280;44763;50.464;30.612;2023-06-22T04:30:00;100608.79;;;30.61;42.63
58979;BME280;44763;50.464;30.612;2023-06-22T04:32:27;100612.40;;;30.61;42.21
58979;BME280;44763;50.464;30.612;2023-06-22T16:47:39;100354.90;;;29.44;36.58
58979;BME280;44763;50.464;30.612;2023-06-22T16:50:09;100355.14;;;29.41;36.58
58979;BME280;44763;50.464;30.612;2023-06-22T16:52:37;100355.09;;;29.38;36.91
58979;BME280;44763;50.464;30.612;2023-06-22T16:55:05;100355.69;;;29.35;37.19
58979;BME280;44763;50.464;30.612;2023-06-22T16:57:36;100354.66;;;29.31;37.44
58979;BME280;44763;50.464;30.612;2023-06-22T17:00:07;100354.89;;;29.25;37.88
58979;BME280;44763;50.464;30.612;2023-06-22T17:02:46;100349.77;;;29.14;38.24
58979;BME280;44763;50.464;30.612;2023-06-22T17:05:15;100352.04;;;29.13;38.46
58979;BME280;44763;50.464;30.612;2023-06-22T17:07:52;100356.10;;;29.08;38.61
58979;BME280;44763;50.464;30.612;2023-06-22T17:10:22;100353.11;;;29.00;39.07
58979;BME280;44763;50.464;30.612;2023-06-22T17:12:52;100349.53;;;28.91;39.14
58979;BME280;44763;50.464;30.612;2023-06-22T17:15:21;100350.10;;;28.86;39.22
58979;BME280;44763;50.464;30.612;2023-06-22T17:17:49;100350.88;;;28.81;39.28
58979;BME280;44763;50.464;30.612;2023-06-22T17:20:17;100350.73;;;28.77;39.48
58979;BME280;44763;50.464;30.612;2023-06-22T17:22:45;100351.48;;;28.74;39.42
58979;BME280;44763;50.464;30.612;2023-06-22T17:25:16;100349.17;;;28.72;39.53
58979;BME280;44763;50.464;30.612;2023-06-22T17:27:47;100348.77;;;28.67;39.85
58979;BME280;44763;50.464;30.612;2023-06-22T17:30:18;100350.54;;;28.68;39.80
58979;BME280;44763;50.464;30.612;2023-06-22T17:32:48;100349.20;;;28.59;39.81
58979;BME280;44763;50.464;30.612;2023-06-22T17:35:16;100351.73;;;28.52;39.74
58979;BME280;44763;50.464;30.612;2023-06-22T17:37:57;100347.44;;;28.50;39.80
58979;BME280;44763;50.464;30.612;2023-06-22T17:40:25;100348.67;;;28.47;40.09
58979;BME280;44763;50.464;30.612;2023-06-22T17:43:05;100341.58;;;28.43;40.34
58979;BME280;44763;50.464;30.612;2023-06-22T17:45:43;100349.86;;;28.45;40.49
58979;BME280;44763;50.464;30.612;2023-06-22T17:48:12;100352.63;;;28.29;40.94
58979;BME280;44763;50.464;30.612;2023-06-22T17:50:41;100351.95;;;28.22;41.13
58979;BME280;44763;50.464;30.612;2023-06-22T17:53:10;100353.91;;;28.17;41.51
58979;BME280;44763;50.464;30.612;2023-06-22T17:55:38;100352.34;;;28.08;41.94
58979;BME280;44763;50.464;30.612;2023-06-22T17:58:06;100349.75;;;28.01;42.04
58979;BME280;44763;50.464;30.612;2023-06-22T18:00:34;100353.33;;;27.94;42.45
58979;BME280;44763;50.464;30.612;2023-06-22T18:03:01;100357.54;;;27.84;43.36
58979;BME280;44763;50.464;30.612;2023-06-22T18:05:30;100360.87;;;27.71;44.04
58979;BME280;44763;50.464;30.612;2023-06-22T18:08:05;100360.55;;;27.62;44.75
58979;BME280;44763;50.464;30.612;2023-06-22T18:10:35;100366.64;;;27.52;45.50
58979;BME280;44763;50.464;30.612;2023-06-22T18:13:03;100373.95;;;27.42;46.16
58979;BME280;44763;50.464;30.612;2023-06-22T18:15:32;100374.25;;;27.36;46.72
58979;BME280;44763;50.464;30.612;2023-06-22T18:18:02;100377.45;;;27.27;47.25
58979;BME280;44763;50.464;30.612;2023-06-22T18:20:31;100380.11;;;27.18;47.55
58979;BME280;44763;50.464;30.612;2023-06-22T18:22:59;100381.67;;;27.10;47.84
58979;BME280;44763;50.464;30.612;2023-06-22T18:25:32;100380.77;;;27.00;48.23
58979;BME280;44763;50.464;30.612;2023-06-22T18:28:04;100375.48;;;26.85;48.66
58979;BME280;44763;50.464;30.612;2023-06-22T18:30:34;100389.73;;;26.84;48.73
58979;BME280;44763;50.464;30.612;2023-06-22T18:33:02;100394.08;;;26.73;49.12
58979;BME280;44763;50.464;30.612;2023-06-22T18:35:30;100396.80;;;26.67;49.36
58979;BME280;44763;50.464;30.612;2023-06-22T18:38:02;100398.40;;;26.60;49.83
58979;BME280;44763;50.464;30.612;2023-06-22T18:40:30;100402.85;;;26.53;50.06
58979;BME280;44763;50.464;30.612;2023-06-22T18:43:01;100407.18;;;26.49;50.41
58979;BME280;44763;50.464;30.612;2023-06-22T18:45:29;100408.09;;;26.42;50.59
58979;BME280;44763;50.464;30.612;2023-06-22T18:48:02;100406.08;;;26.35;50.59
58979;BME280;44763;50.464;30.612;2023-06-22T18:50:44;100405.87;;;26.30;50.82
58979;BME280;44763;50.464;30.612;2023-06-22T18:53:17;100408.14;;;26.24;51.08
58979;BME280;44763;50.464;30.612;2023-06-22T18:55:49;100412.88;;;26.21;51.17
58979;BME280;44763;50.464;30.612;2023-06-22T18:58:25;100417.12;;;26.17;51.62
58979;BME280;44763;50.464;30.612;2023-06-22T19:00:53;100413.23;;;26.14;51.76
58979;BME280;44763;50.464;30.612;2023-06-22T19:03:31;100409.97;;;26.08;52.28
58979;BME280;44763;50.464;30.612;2023-06-22T19:06:01;100411.99;;;26.02;52.84
58979;BME280;44763;50.464;30.612;2023-06-22T19:11:34;100407.89;;;25.90;53.77
58979;BME280;44763;50.464;30.612;2023-06-22T19:14:01;100406.69;;;25.84;54.12
58979;BME280;44763;50.464;30.612;2023-06-22T19:16:32;100406.29;;;25.81;54.39
58979;BME280;44763;50.464;30.612;2023-06-22T19:19:11;100405.08;;;25.76;54.84
58979;BME280;44763;50.464;30.612;2023-06-22T19:21:39;100407.73;;;25.72;55.09
58979;BME280;44763;50.464;30.612;2023-06-22T19:24:07;100410.13;;;25.67;55.29
58979;BME280;44763;50.464;30.612;2023-06-22T19:26:36;100407.83;;;25.63;55.54
58979;BME280;44763;50.464;30.612;2023-06-22T19:29:14;100411.30;;;25.59;55.76
58979;BME280;44763;50.464;30.612;2023-06-22T19:31:42;100415.92;;;25.55;55.98
58979;BME280;44763;50.464;30.612;2023-06-22T19:34:10;100413.46;;;25.50;56.16
58979;BME280;44763;50.464;30.612;2023-06-22T19:36:39;100411.25;;;25.46;56.29
58979;BME280;44763;50.464;30.612;2023-06-22T19:39:06;100415.42;;;25.43;56.35
58979;BME280;44763;50.464;30.612;2023-06-22T19:41:34;100416.75;;;25.41;56.29
58979;BME280;44763;50.464;30.612;2023-06-22T19:44:01;100418.30;;;25.40;56.43
58979;BME280;44763;50.464;30.612;2023-06-22T19:46:32;100418.92;;;25.36;56.71
58979;BME280;44763;50.464;30.612;2023-06-22T19:49:00;100420.96;;;25.31;57.01
58979;BME280;44763;50.464;30.612;2023-06-22T19:51:34;100418.77;;;25.27;57.42
58979;BME280;44763;50.464;30.612;2023-06-22T19:54:06;100423.27;;;25.25;57.36
58979;BME280;44763;50.464;30.612;2023-06-22T19:56:38;100421.58;;;25.25;57.30
58979;BME280;44763;50.464;30.612;2023-06-22T19:59:12;100422.98;;;25.22;57.57
58979;BME280;44763;50.464;30.612;2023-06-22T20:01:42;100421.75;;;25.19;57.60
58979;BME280;44763;50.464;30.612;2023-06-22T20:04:12;100420.48;;;25.15;57.87
58979;BME280;44763;50.464;30.612;2023-06-22T20:06:40;100420.10;;;25.13;57.82
58979;BME280;44763;50.464;30.612;2023-06-22T20:09:12;100418.31;;;25.11;57.81
58979;BME280;44763;50.464;30.612;2023-06-22T20:11:40;100419.19;;;25.09;57.76
58979;BME280;44763;50.464;30.612;2023-06-22T20:14:08;100414.86;;;25.06;57.75
58979;BME280;44763;50.464;30.612;2023-06-22T20:16:46;100409.11;;;25.02;57.66
58979;BME280;44763;50.464;30.612;2023-06-22T20:19:35;100406.14;;;24.96;57.79
58979;BME280;44763;50.464;30.612;2023-06-22T20:22:04;100404.75;;;24.93;57.83
58979;BME280;44763;50.464;30.612;2023-06-22T20:24:32;100395.75;;;24.85;57.91
58979;BME280;44763;50.464;30.612;2023-06-22T20:27:00;100405.86;;;24.90;58.14
58979;BME280;44763;50.464;30.612;2023-06-22T20:29:30;100399.54;;;24.88;58.13
58979;BME280;44763;50.464;30.612;2023-06-22T20:32:16;100397.24;;;24.88;58.21
58979;BME280;44763;50.464;30.612;2023-06-22T20:34:46;100400.66;;;24.83;58.49
58979;BME280;44763;50.464;30.612;2023-06-22T20:37:17;100399.87;;;24.81;58.75
58979;BME280;44763;50.464;30.612;2023-06-22T20:39:49;100400.55;;;24.76;58.98
58979;BME280;44763;50.464;30.612;2023-06-22T20:42:17;100398.22;;;24.73;59.14
58979;BME280;44763;50.464;30.612;2023-06-22T20:44:45;100404.82;;;24.72;59.31
58979;BME280;44763;50.464;30.612;2023-06-22T20:47:18;100402.77;;;24.71;59.36
58979;BME280;44763;50.464;30.612;2023-06-22T20:49:48;100402.34;;;24.67;59.59
58979;BME280;44763;50.464;30.612;2023-06-22T20:52:17;100400.83;;;24.62;59.87
58979;BME280;44763;50.464;30.612;2023-06-22T20:54:45;100400.42;;;24.58;60.22
58979;BME280;44763;50.464;30.612;2023-06-22T20:57:12;100396.35;;;24.55;60.58
58979;BME280;44763;50.464;30.612;2023-06-22T20:59:40;100396.14;;;24.52;60.71
58979;BME280;44763;50.464;30.612;2023-06-22T21:02:07;100396.41;;;24.49;60.89
58979;BME280;44763;50.464;30.612;2023-06-22T21:04:35;100397.85;;;24.45;61.21
58979;BME280;44763;50.464;30.612;2023-06-22T21:07:04;100403.42;;;24.41;61.38
58979;BME280;44763;50.464;30.612;2023-06-22T21:09:32;100398.33;;;24.36;61.75
58979;BME280;44763;50.464;30.612;2023-06-22T21:12:18;100399.30;;;24.35;62.16
58979;BME280;44763;50.464;30.612;2023-06-22T21:14:45;100404.21;;;24.33;62.50
58979;BME280;44763;50.464;30.612;2023-06-22T21:17:13;100396.88;;;24.30;62.80
58979;BME280;44763;50.464;30.612;2023-06-22T21:19:40;100395.20;;;24.25;63.18
58979;BME280;44763;50.464;30.612;2023-06-22T21:22:08;100394.73;;;24.23;63.44
58979;BME280;44763;50.464;30.612;2023-06-22T21:24:35;100374.45;;;24.09;63.69
58979;BME280;44763;50.464;30.612;2023-06-22T21:27:03;100384.30;;;24.11;64.06
58979;BME280;44763;50.464;30.612;2023-06-22T21:29:30;100393.40;;;24.12;64.38
58979;BME280;44763;50.464;30.612;2023-06-22T21:31:58;100390.08;;;24.08;64.64
58979;BME280;44763;50.464;30.612;2023-06-22T21:34:25;100384.21;;;24.04;64.91
58979;BME280;44763;50.464;30.612;2023-06-22T21:36:54;100369.91;;;23.92;65.19
58979;BME280;44763;50.464;30.612;2023-06-22T21:39:21;100370.04;;;23.89;65.66
58979;BME280;44763;50.464;30.612;2023-06-22T21:41:48;100376.29;;;23.93;65.84
58979;BME280;44763;50.464;30.612;2023-06-22T21:44:16;100370.73;;;23.92;65.92
58979;BME280;44763;50.464;30.612;2023-06-22T21:46:43;100367.45;;;23.89;66.19
58979;BME280;44763;50.464;30.612;2023-06-22T21:49:10;100362.44;;;23.86;66.34
58979;BME280;44763;50.464;30.612;2023-06-22T21:51:38;100360.76;;;23.83;66.66
58979;BME280;44763;50.464;30.612;2023-06-22T21:54:05;100359.34;;;23.79;66.91
58979;BME280;44763;50.464;30.612;2023-06-22T21:56:33;100356.67;;;23.74;67.16
58979;BME280;44763;50.464;30.612;2023-06-22T21:59:00;100353.19;;;23.71;67.19
58979;BME280;44763;50.464;30.612;2023-06-22T22:01:27;100353.56;;;23.75;67.29
58979;BME280;44763;50.464;30.612;2023-06-22T22:03:55;100349.53;;;23.73;67.43
58979;BME280;44763;50.464;30.612;2023-06-22T22:06:22;100350.70;;;23.71;67.62
58979;BME280;44763;50.464;30.612;2023-06-22T22:08:50;100355.44;;;23.66;67.91
58979;BME280;44763;50.464;30.612;2023-06-22T22:11:17;100350.27;;;23.65;67.89
58979;BME280;44763;50.464;30.612;2023-06-22T22:13:45;100342.53;;;23.68;67.79
58979;BME280;44763;50.464;30.612;2023-06-22T22:16:12;100343.17;;;23.69;67.82
58979;BME280;44763;50.464;30.612;2023-06-22T22:18:41;100341.95;;;23.62;67.89
58979;BME280;44763;50.464;30.612;2023-06-22T22:21:08;100339.33;;;23.62;68.00
58979;BME280;44763;50.464;30.612;2023-06-22T22:23:35;100326.77;;;23.55;68.24
58979;BME280;44763;50.464;30.612;2023-06-22T22:26:03;100322.59;;;23.54;68.41
58979;BME280;44763;50.464;30.612;2023-06-22T22:28:31;100329.88;;;23.57;68.45
58979;BME280;44763;50.464;30.612;2023-06-22T22:30:58;100325.53;;;23.52;68.63
58979;BME280;44763;50.464;30.612;2023-06-22T22:33:27;100317.82;;;23.40;69.09
58979;BME280;44763;50.464;30.612;2023-06-22T22:35:54;100324.73;;;23.44;69.33
58979;BME280;44763;50.464;30.612;2023-06-22T22:38:21;100323.26;;;23.47;69.30
58979;BME280;44763;50.464;30.612;2023-06-22T22:40:49;100322.60;;;23.46;69.38
58979;BME280;44763;50.464;30.612;2023-06-22T22:43:16;100314.72;;;23.44;69.60
58979;BME280;44763;50.464;30.612;2023-06-22T22:45:43;100311.02;;;23.43;69.50
58979;BME280;44763;50.464;30.612;2023-06-22T22:48:11;100304.34;;;23.40;69.84
58979;BME280;44763;50.464;30.612;2023-06-22T22:50:39;100302.11;;;23.35;70.16
58979;BME280;44763;50.464;30.612;2023-06-22T22:53:06;100299.33;;;23.34;70.16
58979;BME280;44763;50.464;30.612;2023-06-22T22:55:35;100301.73;;;23.33;70.34
58979;BME280;44763;50.464;30.612;2023-06-22T22:58:02;100297.56;;;23.31;70.49
58979;BME280;44763;50.464;30.612;2023-06-22T23:00:31;100296.14;;;23.31;70.55
58979;BME280;44763;50.464;30.612;2023-06-22T23:02:59;100294.18;;;23.29;70.56
58979;BME280;44763;50.464;30.612;2023-06-22T23:05:29;100295.49;;;23.25;70.76
58979;BME280;44763;50.464;30.612;2023-06-22T23:07:56;100291.47;;;23.20;71.17
58979;BME280;44763;50.464;30.612;2023-06-22T23:10:24;100286.21;;;23.13;71.46
58979;BME280;44763;50.464;30.612;2023-06-22T23:12:51;100282.95;;;23.08;71.85
58979;BME280;44763;50.464;30.612;2023-06-22T23:15:19;100284.73;;;23.03;72.25
58979;BME280;44763;50.464;30.612;2023-06-22T23:17:48;100278.91;;;22.99;72.48
58979;BME280;44763;50.464;30.612;2023-06-22T23:20:16;100275.96;;;22.97;72.69
58979;BME280;44763;50.464;30.612;2023-06-22T23:22:44;100271.45;;;22.92;73.14
58979;BME280;44763;50.464;30.612;2023-06-22T23:25:12;100269.49;;;22.91;73.34
58979;BME280;44763;50.464;30.612;2023-06-22T23:27:39;100269.48;;;22.90;73.37
58979;BME280;44763;50.464;30.612;2023-06-22T23:30:07;100273.41;;;22.89;73.36
58979;BME280;44763;50.464;30.612;2023-06-22T23:32:38;100272.86;;;22.85;73.79
58979;BME280;44763;50.464;30.612;2023-06-22T23:35:07;100273.78;;;22.84;73.99
58979;BME280;44763;50.464;30.612;2023-06-22T23:37:36;100248.08;;;22.72;73.82
58979;BME280;44763;50.464;30.612;2023-06-22T23:40:04;100271.06;;;22.83;73.88
58979;BME280;44763;50.464;30.612;2023-06-22T23:42:34;100273.84;;;22.81;74.45
58979;BME280;44763;50.464;30.612;2023-06-22T23:45:01;100273.95;;;22.81;74.21
58979;BME280;44763;50.464;30.612;2023-06-22T23:47:29;100270.42;;;22.82;74.31
58979;BME280;44763;50.464;30.612;2023-06-22T23:49:56;100266.77;;;22.77;74.72
58979;BME280;44763;50.464;30.612;2023-06-22T23:52:23;100258.24;;;22.73;75.01
58979;BME280;44763;50.464;30.612;2023-06-22T23:54:51;100258.73;;;22.76;74.59
58979;BME280;44763;50.464;30.612;2023-06-22T23:57:18;100254.66;;;22.72;74.52
58979;BME280;44763;50.464;30.612;2023-06-22T23:59:45;100253.20;;;22.70;74.68
